ED1ZAS
43.27.52N 005.40.17W
IN73DL aprs.fi
zuletzt gehoert:
2021-11-30T15:32:38Z
zuerst gehoert:
2020-02-10T15:05:12Z

APRS Siero [IN73DK], 0 Stunde(n), ED1ZAS [16:40:40, 0s].
ED1ZAS 43.27.52N 005.40.17WIN73DL 0.417km 345°NNW15:32:38ZRD985 438.2250/430.6250 CC1
ED1ZAE 43.27.99N 005.40.54WIN73DL 1.393km 334°NNW15:26:10Z2m Voice 145.5875 -0.600 Mhz(3ED1ZAE-C)
400 M. PICO SAN MARTIN (GIJON) 13.4V,16.8C(2ED1ZAE-3)
EB1GEM 43.30.00N 005.36.07WIN73EM 7.375km 47°NE15:28:59ZWX3in1Plus2.0 U=13.3V,T=??.?C/??.?F(3EB1GEM-3)
EA1DZR 43.31.48N 005.40.00WIN73EM 7.724km N15:01:43ZMMDVM DVS 434.3500/434.3500 CC1
EA1FFA 43.31.53N 005.40.64WIN73DM 7.868km 355°N15:31:48ZMMDVM MMDVM HS Hat 438.8000/438.8000 CC1
EB1TK 43.32.22N 005.42.32WIN73DM 9.588km 342°NNW15:35:15ZWind 295°/003kn, Böen bis 005kn, Temp 14.44c, Regen 0.0mm, letzte 24h 1.8mm, seit 0h 1.8mm, Baro 1028.0h, Hum: 69%(3EB1TK-13)
LEEL 43.32.98N 005.41.71WIN73DN 10.725km 348°NNW15:30:38ZHelipuerto de El Musel: LEAS 301430Z VRB02KT 9999 FEW038 SCT055 14/07 Q1025 NOSIG=
EB1AD 43.32.80N 005.43.28WIN73DN 11.030km 337°NNW15:40:31ZCarlos(3EB1AD-9)
EA1FLQ 43.22.00N 005.36.35WIN73EI 11.057km 153°SSE15:31:04ZMMDVM DVMega 430.9750/430.9750 CC1
EA1ABW 43.24.77N 005.47.77WIN73CJ 11.347km 246°WSW15:31:27ZMMDVM MMDVM HS Hat 439.8250/439.8250 CC1
LEMR 43.25.83N 005.49.60WIN73CK 13.083km 258°WSW15:30:38ZAerodromo de la Morgal: LEAS 301430Z VRB02KT 9999 FEW038 SCT055 14/07 Q1025 NOSIG=
LEGM 43.26.15N 005.49.84WIN73CK 13.273km 261°W15:30:35ZHelipuerto de La Morgal: LEAS 301430Z VRB02KT 9999 FEW038 SCT055 14/07 Q1025 NOSIG=
LEHU 43.22.63N 005.49.57WIN73CJ 15.427km 236°SW15:30:35ZHelipuerto del HUCA: LEAS 301430Z VRB02KT 9999 FEW038 SCT055 14/07 Q1025 NOSIG=
33D00 43.21.63N 005.51.13WIN73BI 18.200km 235°SW14:58:48Z33-D-00 Protección Civil REMER / Delegación del Gobierno en Asturias
EA1JAY 43.21.54N 005.51.34WIN73BI 18.538km 235°SW15:30:40ZEA1JAY(3EA1JAY-2)
434.525MHz Nodo TETRA DMO(2EA1JAY-4)
EA1YR 43.22.09N 005.51.86WIN73BI 18.552km 239°WSW15:32:27ZMMDVM DVS 434.3500/434.3500 CC1
ED1ZAU 43.23.04N 005.52.75WIN73BJ 18.785km 245°WSW15:32:38ZRD625 438.5000/430.9000 CC1
EA1HJA 43.21.47N 005.52.09WIN73BI 19.433km 236°SW15:32:03Z IN73FL WX3IN1+ 2.0 - V=13.2V,TX TEMP=26.3C(3EA1HJA-2)
IN73FL WX3IN1+ 2.0 - V=14.0V,TX TEMP=43.3C(2EA1HJA)
EA1L 43.20.37N 005.51.13WIN73BI 19.633km 229°SW15:40:11Zea1l@ure.es V=13.4V,T=??.?C
Wind 039°/001kn, Böen bis 002kn, Temp 15.00c, Regen 0.0mm, letzte 24h 0.5mm, seit 0h 0.5mm, Baro 1023.3h, Hum: 67%(2EA1L-13)
EA1HWX 43.19.29N 005.50.96WIN73BH 20.860km 225°SW15:31:29ZDMO - UHF 439.7250/431.0000 CC11
EA1AHA 43.32.72N 005.54.38WIN73BN 21.658km 298°WNW15:32:39ZMMDVM MMDVM HS Hat 432.0000/432.0000 CC1
Wind 000°/007kn, Böen bis 008kn, Temp 15.56c, Regen 0.0mm, letzte 24h 0.0mm, seit 0h 0.0mm, Baro 1026.8h, Hum: 54%(2EA1AHA-13)
ED1ZAY 43.29.47N 005.56.54WIN73AL 22.479km 280°W15:32:38ZRD625 438.3000/430.7000 CC1
EB1CAM 43.18.02N 005.53.08WIN73BH 24.544km 226°SW15:40:34ZEB1CAM por ahi(3EB1CAM-9)
EA1IMW 43.14.36N 005.46.93WIN73CF 25.703km 201°SSW15:01:44ZGRUPO RADIO GALENA (GRG) 433.4500/433.4500 CC1
EB1DGC 43.12.60N 005.45.59WIN73CF 28.250km 195°SSW15:31:21ZMMDVM MMDVM HS Hat 433.4500/433.4500 CC1
EA1JBL 43.12.28N 005.47.42WIN73CE 29.536km 200°SSW15:32:02ZMMDVM DVMega 435.3000/435.3000 CC1
EA1HWA 43.12.00N 005.47.40WIN73CE 30.029km 199°SSW15:31:42ZMMDVM MMDVM HS Hat 433.4500/433.4500 CC1
EA1JBU 43.30.80N 005.16.20WIN73IM 32.765km 78°ENE15:00:37ZEA1JBU(3EA1JBU-2)
EA1JBE 43.30.90N 005.16.15WIN73IM 32.881km 78°ENE15:30:36ZEA1JBU(3EA1JBE-13)
MAIN QTH http://qrz.com/db/ea1jbe(2EA1JBE-1)
EA1RCG 43.09.45N 005.49.78WIN73CD 35.565km 202°SSW15:01:27ZGRUPO RADIO GALENA (GRG) 433.4500/433.4500 CC1
ED1ZAD 43.07.90N 005.38.52WIN73ED 36.014km 177°S15:21:08ZED1ZAD-3 APRS Digi/Igate(3ED1ZAD-3)
ED1ZBF 43.19.16N 005.06.74WIN73KH 47.378km 108°ESE15:32:37ZRD625 438.4750/430.8750 CC1
EC1KV 43.34.01N 006.16.01WIN63UN 49.825km 285°WNW15:34:20ZALBUERNE(3EC1KV-1)

aprs.pl 5.0.011w DL3EL © 2006-2021 [1163089]